Time;durP1;ratioP1;P1;durP2;ratioP2;P2;SDS_P1;SDS_P2;PMS_P1;PMS_P2;Temp;Humidity;BMP_temperature;BMP_pressure;BME280_temperature;BME280_humidity;BME280_pressure;Samples;Min_cycle;Max_cycle;Signal;HPM_P1;HPM_P2
2023/01/05 00:02:23;;;;;;;10.00;1.42;;;9.50;99.90;;;;;;5093413;28;20048;-68
2023/01/05 00:04:48;;;;;;;13.75;2.45;;;9.50;99.90;;;;;;5093405;28;20046;-69
2023/01/05 00:07:14;;;;;;;9.05;2.13;;;9.40;99.90;;;;;;5093360;28;20052;-69
2023/01/05 00:09:40;;;;;;;12.63;2.05;;;9.40;99.90;;;;;;5075542;28;20056;-70
2023/01/05 00:22:29;;;;;;;12.23;1.95;;;9.30;99.90;;;;;;5076280;28;20121;-67
2023/01/05 00:23:19;;;;;;;9.05;1.35;;;9.30;99.90;;;;;;5077593;28;20051;-69
2023/01/05 00:25:45;;;;;;;7.68;1.67;;;9.30;99.90;;;;;;5096816;28;20499;-70
2023/01/05 00:28:11;;;;;;;10.32;1.33;;;9.30;99.90;;;;;;5079054;28;20040;-70
2023/01/05 00:30:43;;;;;;;10.65;1.77;;;9.30;99.90;;;;;;5079039;28;20476;-69
2023/01/05 00:33:10;;;;;;;9.43;1.83;;;9.30;99.90;;;;;;5097024;28;20122;-70
2023/01/05 00:35:37;;;;;;;14.20;1.58;;;9.30;99.90;;;;;;5096948;28;20088;-69
2023/01/05 00:38:03;;;;;;;8.23;1.23;;;9.30;99.90;;;;;;5096920;28;20075;-70
2023/01/05 00:40:29;;;;;;;7.47;2.03;;;9.30;99.90;;;;;;5097036;28;20040;-69
2023/01/05 00:42:55;;;;;;;10.00;1.20;;;9.30;99.90;;;;;;5078965;28;20127;-68
2023/01/05 00:45:20;;;;;;;8.85;1.50;;;9.40;99.90;;;;;;5096820;28;20067;-67
2023/01/05 00:47:46;;;;;;;9.65;1.95;;;9.30;99.90;;;;;;5097003;28;20047;-74
2023/01/05 00:50:15;;;;;;;9.07;1.25;;;9.20;99.90;;;;;;5096427;28;20044;-71
2023/01/05 00:52:40;;;;;;;9.27;1.33;;;9.30;99.90;;;;;;5096635;28;20048;-68
2023/01/05 00:55:07;;;;;;;7.60;1.38;;;9.30;99.90;;;;;;5096524;28;20120;-68
2023/01/05 00:57:33;;;;;;;7.93;1.20;;;9.30;99.90;;;;;;5096465;28;20056;-69
2023/01/05 01:00:00;;;;;;;7.40;1.25;;;9.30;99.90;;;;;;5096533;28;20361;-70
2023/01/05 01:02:26;;;;;;;7.10;1.20;;;9.20;99.90;;;;;;5096605;28;20560;-69
2023/01/05 01:04:52;;;;;;;9.25;1.73;;;9.30;99.90;;;;;;5096525;28;20119;-72
2023/01/05 01:07:17;;;;;;;6.43;1.38;;;9.30;99.90;;;;;;5078978;28;20376;-72
2023/01/05 01:09:43;;;;;;;6.30;1.55;;;9.20;99.90;;;;;;5096763;28;20140;-71
2023/01/05 01:12:09;;;;;;;13.80;2.53;;;9.30;99.90;;;;;;5096489;28;20466;-69
2023/01/05 01:14:35;;;;;;;9.45;1.80;;;9.30;99.90;;;;;;5096335;28;20044;-71
2023/01/05 01:17:01;;;;;;;13.63;2.10;;;9.20;99.90;;;;;;5096267;28;20087;-69
2023/01/05 01:19:27;;;;;;;15.02;2.30;;;9.30;99.90;;;;;;5096212;28;20076;-70
2023/01/05 01:21:53;;;;;;;6.82;2.08;;;9.20;99.90;;;;;;5078127;28;20048;-73
2023/01/05 01:24:25;;;;;;;14.63;2.63;;;9.30;99.90;;;;;;5096357;28;20537;-68
2023/01/05 01:26:52;;;;;;;12.25;2.75;;;9.20;99.90;;;;;;5096209;28;20058;-69
2023/01/05 01:29:18;;;;;;;11.55;2.10;;;9.30;99.90;;;;;;5062364;28;20044;-66
2023/01/05 01:31:48;;;;;;;17.48;3.20;;;9.30;99.90;;;;;;5096007;28;20052;-67
2023/01/05 01:34:14;;;;;;;14.43;2.90;;;9.20;99.90;;;;;;5078369;28;20052;-67
2023/01/05 01:36:40;;;;;;;13.75;2.65;;;9.30;99.90;;;;;;5096224;28;20047;-67
2023/01/05 01:39:05;;;;;;;14.48;2.53;;;9.30;99.90;;;;;;5077821;28;20457;-67
2023/01/05 01:41:31;;;;;;;11.82;2.75;;;9.30;99.90;;;;;;5095943;28;20077;-67
2023/01/05 01:43:57;;;;;;;11.93;2.22;;;9.30;99.90;;;;;;5095808;28;20036;-67
2023/01/05 01:46:25;;;;;;;17.98;2.45;;;9.40;99.90;;;;;;5077923;28;20122;-68
2023/01/05 01:48:59;;;;;;;16.02;2.08;;;9.30;99.90;;;;;;5096283;28;20055;-68
2023/01/05 01:51:43;;;;;;;11.48;2.60;;;9.30;99.90;;;;;;5095700;28;20487;-68
2023/01/05 01:54:12;;;;;;;14.68;2.47;;;9.40;99.90;;;;;;5096205;28;20040;-68
2023/01/05 01:56:44;;;;;;;14.93;2.03;;;9.40;99.90;;;;;;5095446;28;20483;-70
2023/01/05 01:59:10;;;;;;;13.80;2.30;;;9.30;99.90;;;;;;5095754;28;20491;-68
2023/01/05 02:01:36;;;;;;;15.57;2.30;;;9.40;99.90;;;;;;5095763;28;20505;-70
2023/01/05 02:04:03;;;;;;;14.05;2.00;;;9.50;99.90;;;;;;5095426;28;20083;-69
2023/01/05 02:06:29;;;;;;;10.75;1.70;;;9.40;99.90;;;;;;5077555;28;20059;-69
2023/01/05 02:08:55;;;;;;;13.13;2.35;;;9.40;99.90;;;;;;5095299;28;20044;-70
2023/01/05 02:11:44;;;;;;;12.02;2.42;;;9.40;99.90;;;;;;5095229;28;20044;-70
2023/01/05 02:14:29;;;;;;;10.65;2.17;;;9.50;99.90;;;;;;5095292;28;20051;-68
2023/01/05 02:17:32;;;;;;;16.67;2.60;;;9.40;99.90;;;;;;5077933;28;20070;-68
2023/01/05 02:20:01;;;;;;;10.60;2.15;;;9.40;99.90;;;;;;5095068;28;20040;-67
2023/01/05 02:23:00;;;;;;;10.75;1.90;;;9.40;99.90;;;;;;5095284;28;20544;-68
2023/01/05 02:25:50;;;;;;;11.48;2.10;;;9.50;99.90;;;;;;5094926;28;20101;-67
2023/01/05 02:28:34;;;;;;;12.93;1.92;;;9.40;99.90;;;;;;5095039;28;20048;-67
2023/01/05 02:31:35;;;;;;;12.75;2.42;;;9.40;99.90;;;;;;5077274;28;20047;-68
2023/01/05 02:34:29;;;;;;;11.82;1.83;;;9.40;99.90;;;;;;5076869;28;20062;-68
2023/01/05 02:37:09;;;;;;;12.55;1.80;;;9.40;99.90;;;;;;5076741;28;20054;-68
2023/01/05 02:39:48;;;;;;;8.25;1.95;;;9.40;99.90;;;;;;5094710;28;20130;-68
2023/01/05 02:42:21;;;;;;;12.25;1.80;;;9.40;99.90;;;;;;5094434;28;20048;-67
2023/01/05 02:44:47;;;;;;;;;;;9.40;99.90;;;;;;5094870;28;20043;-67
2023/01/05 02:47:24;;;;;;;11.30;1.73;;;9.30;99.90;;;;;;5094257;28;19927;-68
2023/01/05 02:50:05;;;;;;;8.85;1.20;;;9.40;99.90;;;;;;5094474;28;20048;-67
2023/01/05 02:52:48;;;;;;;13.20;1.52;;;9.40;99.90;;;;;;5094551;28;20036;-67
2023/01/05 02:55:18;;;;;;;14.35;1.83;;;9.40;99.90;;;;;;5095010;28;20044;-67
2023/01/05 02:58:04;;;;;;;10.85;1.77;;;9.40;99.90;;;;;;5094370;28;20411;-67
2023/01/05 03:00:34;;;;;;;12.75;2.00;;;9.50;99.90;;;;;;5076818;28;20036;-68
2023/01/05 03:03:17;;;;;;;9.85;1.95;;;9.40;99.90;;;;;;5094291;28;20091;-66
2023/01/05 03:05:51;;;;;;;13.75;1.65;;;9.50;99.90;;;;;;5094362;28;20140;-68
2023/01/05 03:08:26;;;;;;;12.05;1.70;;;9.40;99.90;;;;;;5094585;28;20086;-68
2023/01/05 03:13:55;;;;;;;13.85;1.73;;;9.50;99.90;;;;;;5076949;28;20399;-69
2023/01/05 03:16:26;;;;;;;10.35;1.90;;;9.50;99.90;;;;;;5094166;28;20424;-68
2023/01/05 03:35:37;;;;;;;12.73;2.58;;;9.50;99.90;;;;;;5093963;28;20063;-67
2023/01/05 03:38:14;;;;;;;11.88;1.90;;;9.40;99.90;;;;;;5093923;28;20093;-67
2023/01/05 03:40:42;;;;;;;10.35;2.47;;;9.50;99.90;;;;;;5094637;28;20044;-71
2023/01/05 03:43:08;;;;;;;14.07;2.20;;;9.50;99.90;;;;;;5093746;28;20048;-68
2023/01/05 03:45:43;;;;;;;10.65;2.03;;;9.50;99.90;;;;;;5075764;28;20079;-72
2023/01/05 03:48:08;;;;;;;12.70;1.90;;;9.30;99.90;;;;;;5093503;28;20500;-71
2023/01/05 03:50:35;;;;;;;6.82;1.70;;;9.50;99.90;;;;;;5093770;28;20123;-69
2023/01/05 03:53:01;;;;;;;10.70;1.98;;;9.50;99.90;;;;;;5093604;28;20489;-68
2023/01/05 03:55:27;;;;;;;12.05;2.10;;;9.50;99.90;;;;;;5093364;28;20101;-68
2023/01/05 03:57:53;;;;;;;13.93;2.03;;;9.50;99.90;;;;;;5078093;28;20052;-68
2023/01/05 04:00:19;;;;;;;13.82;2.58;;;9.40;99.90;;;;;;5098381;28;20044;-70
2023/01/05 04:02:45;;;;;;;8.77;1.73;;;9.40;99.90;;;;;;5097731;28;20044;-70
2023/01/05 04:05:11;;;;;;;13.52;1.75;;;9.50;99.90;;;;;;5097428;28;20040;-69
2023/01/05 04:07:37;;;;;;;10.43;1.90;;;9.40;99.90;;;;;;5098214;28;20063;-69
2023/01/05 04:10:04;;;;;;;11.27;1.70;;;9.40;99.90;;;;;;5079516;28;20399;-69
2023/01/05 04:12:30;;;;;;;22.08;2.78;;;9.40;99.90;;;;;;5098163;28;20044;-69
2023/01/05 04:14:55;;;;;;;8.98;1.65;;;9.60;99.90;;;;;;5097518;28;20040;-69
2023/01/05 04:17:21;;;;;;;12.73;2.05;;;9.40;99.90;;;;;;5079921;28;20044;-68
2023/01/05 04:19:46;;;;;;;12.45;1.98;;;9.40;99.90;;;;;;5097427;28;20123;-68
2023/01/05 04:22:12;;;;;;;14.40;1.70;;;9.40;99.90;;;;;;5079553;28;20063;-68
2023/01/05 04:24:38;;;;;;;12.75;2.50;;;9.60;99.90;;;;;;5097565;28;20040;-70
2023/01/05 04:27:03;;;;;;;17.42;2.30;;;9.40;99.90;;;;;;5079113;28;20499;-70
2023/01/05 04:29:29;;;;;;;15.65;2.00;;;9.30;99.90;;;;;;5097420;28;20558;-73
2023/01/05 04:31:55;;;;;;;7.78;1.95;;;9.60;99.90;;;;;;5079143;28;20120;-70
2023/01/05 04:34:20;;;;;;;12.27;2.17;;;9.40;99.90;;;;;;5079307;28;20122;-74
2023/01/05 04:36:48;;;;;;;13.25;2.03;;;9.40;99.90;;;;;;5096673;28;20044;-70
2023/01/05 04:39:14;;;;;;;12.48;2.03;;;9.50;99.90;;;;;;5097420;28;20105;-69
2023/01/05 04:41:40;;;;;;;11.35;1.70;;;9.40;99.90;;;;;;5096938;28;20052;-70
2023/01/05 04:44:06;;;;;;;14.40;2.20;;;9.50;99.90;;;;;;5097634;28;20051;-71
2023/01/05 04:46:31;;;;;;;13.75;1.90;;;9.40;99.90;;;;;;5078793;28;20123;-71
2023/01/05 04:48:57;;;;;;;9.45;1.63;;;9.40;99.90;;;;;;5096727;28;20502;-70
2023/01/05 04:51:23;;;;;;;13.75;2.05;;;9.40;99.90;;;;;;5097012;28;20079;-69
2023/01/05 04:53:49;;;;;;;10.50;1.77;;;9.50;99.90;;;;;;5096559;28;20040;-70
2023/01/05 04:56:15;;;;;;;11.25;1.70;;;9.40;99.90;;;;;;5096078;28;20048;-69
2023/01/05 04:58:41;;;;;;;14.35;2.38;;;9.40;99.90;;;;;;5095940;28;20059;-68
2023/01/05 05:01:07;;;;;;;10.93;2.63;;;9.40;99.90;;;;;;5094883;28;20036;-70
2023/01/05 05:03:33;;;;;;;11.18;1.83;;;9.50;99.90;;;;;;5095294;28;20048;-71
2023/01/05 05:05:59;;;;;;;8.23;1.77;;;9.50;99.90;;;;;;5096044;28;20047;-71
2023/01/05 05:08:25;;;;;;;10.98;1.85;;;9.50;99.90;;;;;;5077187;28;20471;-72
2023/01/05 05:10:50;;;;;;;9.50;1.65;;;9.50;99.90;;;;;;5095448;28;20356;-71
2023/01/05 05:13:16;;;;;;;8.20;1.63;;;9.60;99.90;;;;;;5095136;28;20383;-70
2023/01/05 05:15:43;;;;;;;5.97;1.60;;;9.50;99.90;;;;;;5095066;28;20050;-74
2023/01/05 05:18:09;;;;;;;11.25;1.63;;;9.50;99.90;;;;;;5077049;28;20040;-71
2023/01/05 05:20:36;;;;;;;11.13;1.73;;;9.60;99.90;;;;;;5094952;28;20109;-71
2023/01/05 05:23:02;;;;;;;13.93;1.90;;;9.50;99.90;;;;;;5094955;28;20082;-69
2023/01/05 05:25:28;;;;;;;14.65;2.33;;;9.50;99.90;;;;;;5094868;28;20044;-74
2023/01/05 05:27:53;;;;;;;12.32;1.98;;;9.60;99.90;;;;;;5095169;28;20044;-69
2023/01/05 05:30:19;;;;;;;12.70;2.55;;;9.60;99.90;;;;;;5095153;28;20047;-75
2023/01/05 05:32:45;;;;;;;15.57;2.67;;;9.50;99.90;;;;;;5094799;28;20223;-72
2023/01/05 05:35:11;;;;;;;11.73;1.73;;;9.50;99.90;;;;;;5095298;28;20044;-73
2023/01/05 05:37:36;;;;;;;11.45;2.05;;;9.60;99.90;;;;;;5094706;28;20403;-73
2023/01/05 05:40:02;;;;;;;9.30;1.73;;;9.50;99.90;;;;;;5076656;28;20036;-74
2023/01/05 05:42:28;;;;;;;8.48;1.95;;;9.50;99.90;;;;;;5094677;28;20055;-72
2023/01/05 05:44:54;;;;;;;7.82;1.73;;;9.50;99.90;;;;;;5094633;28;20043;-79
2023/01/05 05:47:19;;;;;;;10.55;1.50;;;9.50;99.90;;;;;;5094307;28;20079;-70
2023/01/05 05:49:45;;;;;;;9.52;1.30;;;9.50;99.90;;;;;;5094659;28;20097;-68
2023/01/05 05:52:11;;;;;;;11.70;2.05;;;9.50;99.90;;;;;;5095102;28;20130;-69
2023/01/05 05:54:36;;;;;;;12.60;2.05;;;9.50;99.90;;;;;;5094651;28;20044;-71
2023/01/05 05:57:02;;;;;;;14.43;2.55;;;9.40;99.90;;;;;;5055758;28;1110134;-70
2023/01/05 05:59:28;;;;;;;14.45;2.25;;;9.50;99.90;;;;;;5077563;28;20137;-74
2023/01/05 06:01:53;;;;;;;13.85;2.05;;;9.50;99.90;;;;;;5077491;28;20070;-70
2023/01/05 06:04:19;;;;;;;9.88;1.90;;;9.80;99.90;;;;;;5095495;28;20044;-71
2023/01/05 06:06:45;;;;;;;10.70;1.80;;;9.50;99.90;;;;;;5060810;28;20052;-71
2023/01/05 06:09:11;;;;;;;11.13;1.73;;;9.50;99.90;;;;;;5095252;28;20052;-71
2023/01/05 06:11:36;;;;;;;9.57;1.50;;;9.50;99.90;;;;;;5094872;28;20040;-79
2023/01/05 06:14:03;;;;;;;12.23;1.70;;;9.50;99.90;;;;;;5095116;28;20048;-71
2023/01/05 06:16:29;;;;;;;12.35;2.15;;;9.50;99.90;;;;;;5060238;28;20048;-73
2023/01/05 06:18:54;;;;;;;11.10;2.50;;;9.50;99.90;;;;;;5095561;28;20052;-71
2023/01/05 06:21:21;;;;;;;15.43;2.33;;;9.50;99.90;;;;;;5075757;28;20435;-70
2023/01/05 06:23:47;;;;;;;10.35;2.33;;;9.50;99.90;;;;;;5094901;28;20087;-72
2023/01/05 06:26:12;;;;;;;10.25;1.85;;;9.50;99.90;;;;;;5094865;28;20403;-71
2023/01/05 06:28:38;;;;;;;9.77;1.95;;;9.50;99.90;;;;;;5094804;28;20043;-72
2023/01/05 06:31:04;;;;;;;16.35;2.05;;;9.40;99.90;;;;;;5076738;28;20130;-71
2023/01/05 06:33:30;;;;;;;14.00;2.13;;;9.50;99.90;;;;;;5094758;28;20480;-71
2023/01/05 06:35:57;;;;;;;9.48;2.10;;;9.40;99.90;;;;;;5094714;28;20044;-71
2023/01/05 06:38:24;;;;;;;14.45;1.80;;;9.40;99.90;;;;;;5076805;28;20557;-72
2023/01/05 06:40:49;;;;;;;9.40;1.70;;;9.40;99.90;;;;;;5095144;28;20048;-71
2023/01/05 06:43:15;;;;;;;12.40;1.85;;;9.40;99.90;;;;;;5095143;28;20093;-70
2023/01/05 06:45:41;;;;;;;14.10;1.80;;;9.40;99.90;;;;;;5076489;28;20043;-72
2023/01/05 06:48:07;;;;;;;12.13;1.70;;;9.40;99.90;;;;;;5059883;28;20055;-73
2023/01/05 06:50:33;;;;;;;7.28;1.52;;;9.40;99.90;;;;;;5076491;28;20059;-74
2023/01/05 06:52:58;;;;;;;10.05;1.50;;;9.40;99.90;;;;;;5076377;28;20052;-71
2023/01/05 06:55:24;;;;;;;7.97;1.55;;;9.40;99.90;;;;;;5059380;28;20044;-72
2023/01/05 06:57:50;;;;;;;11.63;1.50;;;9.40;99.90;;;;;;5076502;28;20131;-70
2023/01/05 07:00:16;;;;;;;11.43;1.65;;;9.40;99.90;;;;;;5094271;28;20036;-75
2023/01/05 07:02:42;;;;;;;9.75;1.65;;;9.40;99.90;;;;;;5094271;28;20404;-70
2023/01/05 07:05:08;;;;;;;8.63;1.60;;;9.40;99.90;;;;;;5076133;28;20044;-70
2023/01/05 07:07:35;;;;;;;8.98;1.90;;;9.30;99.90;;;;;;5076273;28;20058;-69
2023/01/05 07:10:01;;;;;;;10.38;1.98;;;9.30;99.90;;;;;;5094088;28;20044;-70
2023/01/05 07:12:27;;;;;;;8.50;2.08;;;9.40;99.90;;;;;;5094084;28;20099;-73
2023/01/05 07:14:52;;;;;;;13.32;2.55;;;9.40;99.90;;;;;;5076654;28;20100;-71
2023/01/05 07:17:18;;;;;;;13.05;1.95;;;9.30;99.90;;;;;;5094001;28;20446;-71
2023/01/05 07:19:44;;;;;;;14.07;2.50;;;9.40;99.90;;;;;;5094154;28;20044;-70
2023/01/05 07:22:09;;;;;;;10.10;1.88;;;9.30;99.90;;;;;;5076452;28;20468;-70
2023/01/05 07:24:35;;;;;;;13.45;2.22;;;9.20;99.90;;;;;;5093815;28;20043;-70
2023/01/05 07:27:01;;;;;;;13.25;2.25;;;9.20;99.90;;;;;;5093940;28;20048;-71
2023/01/05 07:29:27;;;;;;;12.52;1.92;;;9.40;99.90;;;;;;5093846;28;20040;-70
2023/01/05 07:31:53;;;;;;;14.48;2.20;;;9.20;99.90;;;;;;5094301;28;20057;-70
2023/01/05 07:34:20;;;;;;;10.35;2.75;;;9.20;99.90;;;;;;5093770;28;20484;-70
2023/01/05 07:36:46;;;;;;;13.88;2.13;;;9.30;99.90;;;;;;5093410;28;20475;-71
2023/01/05 07:39:12;;;;;;;12.32;2.40;;;9.20;99.90;;;;;;5093723;28;20093;-69
2023/01/05 07:41:38;;;;;;;10.27;1.83;;;9.20;99.90;;;;;;5093843;28;20467;-71
2023/01/05 07:44:03;;;;;;;13.60;2.20;;;9.20;99.90;;;;;;5059107;28;20356;-71
2023/01/05 07:46:30;;;;;;;10.63;2.20;;;9.20;99.90;;;;;;5093633;28;20048;-71
2023/01/05 07:48:57;;;;;;;11.05;2.10;;;9.20;99.90;;;;;;5093603;28;20040;-71
2023/01/05 07:51:23;;;;;;;11.00;2.33;;;9.20;99.90;;;;;;5075827;28;20373;-71
2023/01/05 07:53:49;;;;;;;12.13;2.45;;;9.20;99.90;;;;;;5093491;28;20443;-70
2023/01/05 07:56:15;;;;;;;10.82;1.65;;;9.20;99.90;;;;;;5072423;28;20080;-71
2023/01/05 07:58:41;;;;;;;13.25;2.05;;;9.30;99.90;;;;;;5072326;28;20088;-71
2023/01/05 08:01:09;;;;;;;10.25;2.40;;;9.30;99.90;;;;;;5074087;28;20384;-71
2023/01/05 08:03:35;;;;;;;11.43;2.35;;;9.30;99.90;;;;;;5073876;28;20044;-69
2023/01/05 08:06:10;;;;;;;11.82;2.15;;;9.20;99.90;;;;;;5073773;28;20052;-73
2023/01/05 08:08:36;;;;;;;10.63;1.85;;;9.20;99.90;;;;;;5074106;28;20131;-71
2023/01/05 08:11:06;;;;;;;7.07;1.42;;;9.30;99.90;;;;;;5072872;28;20480;-70
2023/01/05 08:16:17;;;;;;;7.47;1.27;;;9.30;99.90;;;;;;5073707;28;20135;-71
2023/01/05 08:18:43;;;;;;;10.13;1.50;;;9.30;99.90;;;;;;5073165;28;20131;-70
2023/01/05 08:21:08;;;;;;;10.10;1.88;;;9.30;99.90;;;;;;5071807;28;20090;-72
2023/01/05 08:23:35;;;;;;;11.85;2.47;;;9.30;99.90;;;;;;5073068;28;20049;-70
2023/01/05 08:26:06;;;;;;;8.25;1.30;;;9.30;99.90;;;;;;5072068;28;20450;-70
2023/01/05 08:28:35;;;;;;;10.98;2.40;;;9.30;99.90;;;;;;5073064;28;20044;-71
2023/01/05 08:31:09;;;;;;;9.07;1.42;;;9.30;99.90;;;;;;5072204;28;20045;-72
2023/01/05 08:33:35;;;;;;;8.10;1.35;;;9.30;99.90;;;;;;5073148;28;20102;-71
2023/01/05 08:36:05;;;;;;;10.13;1.40;;;9.20;99.90;;;;;;5073171;28;20045;-70
2023/01/05 08:38:31;;;;;;;7.53;1.30;;;9.30;99.90;;;;;;5073186;28;20049;-71
2023/01/05 08:41:00;;;;;;;10.27;1.35;;;9.30;99.90;;;;;;5055970;28;20051;-71
2023/01/05 08:43:26;;;;;;;8.07;1.33;;;9.30;99.90;;;;;;5072943;28;20048;-71
2023/01/05 08:45:51;;;;;;;10.43;1.83;;;9.30;99.90;;;;;;5076448;28;20067;-72
2023/01/05 08:48:17;;;;;;;9.77;1.63;;;9.30;99.90;;;;;;5077559;28;20109;-72
2023/01/05 08:50:43;;;;;;;8.15;1.45;;;9.30;99.90;;;;;;5076659;28;20055;-71
2023/01/05 08:53:09;;;;;;;10.93;1.80;;;9.30;99.90;;;;;;5076525;28;20127;-72
2023/01/05 08:55:35;;;;;;;10.25;1.98;;;9.20;99.90;;;;;;5078974;28;21478;-70
2023/01/05 08:58:00;;;;;;;11.68;1.73;;;9.30;99.90;;;;;;5078938;28;20495;-72
2023/01/05 09:00:26;;;;;;;7.97;1.55;;;9.40;99.90;;;;;;5097249;28;20040;-71
2023/01/05 09:02:52;;;;;;;9.77;1.33;;;9.30;99.90;;;;;;5097203;28;20074;-74
2023/01/05 09:05:17;;;;;;;12.27;1.80;;;9.40;99.90;;;;;;5096653;28;20047;-73
2023/01/05 09:07:43;;;;;;;7.53;1.20;;;9.20;99.90;;;;;;5097084;28;20472;-73
2023/01/05 09:10:09;;;;;;;11.50;1.52;;;9.20;99.90;;;;;;5096267;28;20140;-79
2023/01/05 09:12:37;;;;;;;9.10;1.05;;;9.10;99.90;;;;;;5096429;28;20131;-73
2023/01/05 09:15:04;;;;;;;5.35;0.98;;;9.10;99.90;;;;;;5096409;28;20475;-75
2023/01/05 09:17:30;;;;;;;5.35;1.10;;;9.10;99.90;;;;;;5096588;28;20048;-79
2023/01/05 09:19:55;;;;;;;4.60;1.20;;;9.10;99.90;;;;;;5096306;28;20449;-79
2023/01/05 09:22:21;;;;;;;7.68;1.15;;;9.00;99.90;;;;;;5078345;28;20048;-80
2023/01/05 09:24:47;;;;;;;6.10;1.50;;;9.20;99.90;;;;;;5096711;28;20516;-82
2023/01/05 09:27:14;;;;;;;7.85;1.25;;;9.00;99.90;;;;;;5096196;28;20047;-76
2023/01/05 09:29:39;;;;;;;6.03;1.20;;;9.00;99.90;;;;;;5096098;28;20048;-82
2023/01/05 09:32:06;;;;;;;7.82;1.05;;;9.00;99.90;;;;;;5096616;28;20055;-75
2023/01/05 09:34:32;;;;;;;9.45;1.30;;;9.00;99.90;;;;;;5078478;28;20135;-76
2023/01/05 09:36:57;;;;;;;6.72;1.45;;;9.00;99.90;;;;;;5096042;28;20123;-79
2023/01/05 09:39:23;;;;;;;10.48;1.30;;;9.00;99.90;;;;;;5095972;28;20373;-75
2023/01/05 09:41:59;;;;;;;6.38;1.00;;;8.90;99.90;;;;;;5096471;28;20040;-76
2023/01/05 09:44:36;;;;;;;8.93;1.27;;;8.90;99.90;;;;;;5095878;28;20040;-80
2023/01/05 09:47:04;;;;;;;7.88;1.27;;;9.00;99.90;;;;;;5095937;28;20083;-78
2023/01/05 09:49:31;;;;;;;6.97;1.30;;;9.00;99.90;;;;;;5095735;28;20051;-77
2023/01/05 09:52:07;;;;;;;9.10;1.20;;;9.00;99.90;;;;;;5062047;28;20387;-76
2023/01/05 09:54:35;;;;;;;6.97;1.20;;;9.00;99.90;;;;;;5095066;28;20083;-76
2023/01/05 09:57:03;;;;;;;10.15;1.48;;;9.00;99.90;;;;;;5094799;28;20056;-75
2023/01/05 09:59:37;;;;;;;11.88;2.13;;;9.00;99.90;;;;;;5095547;28;20052;-79
2023/01/05 10:02:13;;;;;;;9.82;1.73;;;9.00;99.90;;;;;;5077685;28;20055;-74
2023/01/05 10:04:40;;;;;;;10.30;2.00;;;9.00;99.90;;;;;;5095486;28;20044;-78
2023/01/05 10:07:12;;;;;;;8.88;1.40;;;9.00;99.90;;;;;;5077435;28;20052;-76
2023/01/05 10:09:39;;;;;;;10.10;1.50;;;9.00;99.90;;;;;;5095398;28;20040;-78
2023/01/05 10:14:59;;;;;;;9.15;1.52;;;9.10;99.90;;;;;;5095020;28;20538;-75
2023/01/05 10:17:28;;;;;;;10.50;2.05;;;9.10;99.90;;;;;;5095776;28;20044;-76
2023/01/05 10:19:54;;;;;;;10.38;1.55;;;9.10;99.90;;;;;;5094916;28;20453;-75
2023/01/05 10:22:37;;;;;;;11.15;1.50;;;9.10;99.90;;;;;;5078100;28;20109;-78
2023/01/05 10:25:22;;;;;;;8.57;1.40;;;9.10;99.90;;;;;;5094986;28;20098;-74
2023/01/05 10:28:04;;;;;;;9.27;1.20;;;9.20;99.90;;;;;;5077385;28;20051;-73
2023/01/05 10:30:57;;;;;;;11.30;1.50;;;9.20;99.90;;;;;;5095776;28;20044;-73
2023/01/05 10:34:01;;;;;;;8.73;1.15;;;9.20;99.90;;;;;;5095128;28;20372;-71
2023/01/05 10:36:43;;;;;;;6.53;1.13;;;9.20;99.90;;;;;;5073449;28;20048;-72
2023/01/05 10:39:36;;;;;;;7.55;0.93;;;9.20;99.90;;;;;;5095335;28;20043;-72
2023/01/05 10:42:11;;;;;;;7.70;1.00;;;9.20;99.90;;;;;;5077155;28;20044;-76
2023/01/05 10:44:54;;;;;;;5.07;1.00;;;9.20;99.90;;;;;;5095024;28;20102;-75
2023/01/05 10:47:21;;;;;;;;;;;9.30;99.90;;;;;;5077319;28;20127;-76
2023/01/05 10:49:47;;;;;;;4.95;0.80;;;9.40;99.90;;;;;;5095471;28;19965;-76
2023/01/05 10:52:18;;;;;;;7.10;0.73;;;9.60;99.90;;;;;;5094545;28;20505;-74
2023/01/05 10:54:55;;;;;;;5.22;1.02;;;9.40;99.90;;;;;;5094392;28;20050;-71
2023/01/05 10:57:27;;;;;;;4.55;0.70;;;9.40;99.90;;;;;;5094254;28;20508;-72
2023/01/05 10:59:55;;;;;;;6.47;1.00;;;9.40;99.90;;;;;;5077174;28;20379;-73
2023/01/05 11:02:26;;;;;;;6.47;1.05;;;9.40;99.90;;;;;;5094395;28;20047;-73
2023/01/05 11:04:53;;;;;;;3.38;0.52;;;9.40;99.90;;;;;;5094419;28;20044;-71
2023/01/05 11:07:19;;;;;;;5.43;0.65;;;9.40;99.90;;;;;;5093927;28;20044;-77
2023/01/05 11:09:47;;;;;;;5.65;0.85;;;9.40;99.90;;;;;;5094292;28;20047;-75
2023/01/05 11:12:21;;;;;;;4.05;0.70;;;9.40;99.90;;;;;;5093715;28;20400;-73
2023/01/05 11:14:50;;;;;;;7.38;1.02;;;9.40;99.90;;;;;;5094648;28;20396;-73
2023/01/05 11:17:20;;;;;;;5.78;0.60;;;9.40;99.90;;;;;;5094064;28;20048;-74
2023/01/05 11:19:54;;;;;;;4.72;0.73;;;9.40;99.90;;;;;;5094054;28;20495;-73
2023/01/05 11:22:27;;;;;;;3.90;0.85;;;9.40;99.90;;;;;;5094041;28;20052;-74
2023/01/05 11:24:53;;;;;;;7.97;0.98;;;9.40;99.90;;;;;;5093623;28;20502;-73
2023/01/05 11:27:18;;;;;;;6.07;0.90;;;9.40;99.90;;;;;;5076202;28;20056;-72
2023/01/05 11:29:44;;;;;;;8.27;1.38;;;9.40;99.90;;;;;;5093869;28;20083;-72
2023/01/05 11:32:12;;;;;;;8.50;0.90;;;9.50;99.90;;;;;;5075641;28;20047;-74
2023/01/05 11:34:50;;;;;;;10.60;1.70;;;9.50;99.90;;;;;;5093826;28;20044;-75
2023/01/05 11:37:24;;;;;;;7.57;1.35;;;9.50;99.90;;;;;;5094569;28;20044;-73
2023/01/05 11:39:55;;;;;;;9.45;1.35;;;9.50;99.90;;;;;;5093779;28;20036;-74
2023/01/05 11:42:24;;;;;;;9.68;1.48;;;9.90;99.90;;;;;;5093554;28;20488;-75
2023/01/05 11:44:51;;;;;;;8.38;1.75;;;9.50;99.90;;;;;;5060061;28;20044;-75
2023/01/05 11:47:33;;;;;;;6.90;0.95;;;9.50;99.90;;;;;;5093529;28;20044;-75
2023/01/05 11:50:04;;;;;;;7.45;1.52;;;9.50;99.90;;;;;;5076357;28;20043;-74
2023/01/05 11:52:34;;;;;;;9.23;1.10;;;9.50;99.90;;;;;;5093800;28;20052;-74
2023/01/05 11:55:23;;;;;;;7.90;1.20;;;9.50;99.90;;;;;;5076555;28;20431;-74
2023/01/05 11:57:51;;;;;;;7.22;1.02;;;9.60;99.90;;;;;;5094230;28;20431;-75
2023/01/05 12:00:38;;;;;;;5.95;0.80;;;9.50;99.90;;;;;;5093589;28;20055;-76
2023/01/05 12:03:35;;;;;;;6.70;0.80;;;9.60;99.90;;;;;;5093616;28;20043;-75
2023/01/05 12:06:42;;;;;;;3.75;1.00;;;9.50;99.90;;;;;;5094158;28;20048;-75
2023/01/05 12:09:11;;;;;;;5.80;0.73;;;9.60;99.90;;;;;;5093641;28;20085;-75
2023/01/05 12:11:58;;;;;;;5.00;0.90;;;9.60;99.90;;;;;;5093498;28;20121;-77
2023/01/05 12:14:29;;;;;;;6.30;1.08;;;9.60;99.90;;;;;;5093521;28;20044;-75
2023/01/05 12:16:55;;;;;;;3.47;0.75;;;9.60;99.90;;;;;;5093410;28;20044;-76
2023/01/05 12:19:39;;;;;;;6.28;0.85;;;9.60;99.90;;;;;;5095866;28;20078;-74
2023/01/05 12:22:20;;;;;;;;;;;9.50;99.90;;;;;;5079777;28;20109;-77
2023/01/05 12:25:09;;;;;;;6.35;1.42;;;9.40;99.90;;;;;;5097308;28;19920;-76
2023/01/05 12:27:41;;;;;;;5.95;1.13;;;9.30;99.90;;;;;;5097339;28;20040;-76
2023/01/05 12:30:36;;;;;;;7.70;1.13;;;9.30;99.90;;;;;;5096829;28;20488;-75
2023/01/05 12:33:29;;;;;;;8.10;1.00;;;9.20;99.90;;;;;;5098002;28;20473;-75
2023/01/05 12:36:00;;;;;;;9.48;1.27;;;9.30;99.90;;;;;;5097295;28;20044;-76
2023/01/05 12:38:39;;;;;;;9.77;1.20;;;9.20;99.90;;;;;;5097130;28;20131;-75
2023/01/05 12:41:24;;;;;;;7.75;1.00;;;9.30;99.90;;;;;;5079222;28;20372;-75
2023/01/05 12:44:23;;;;;;;7.22;1.80;;;9.30;99.90;;;;;;5097875;28;20048;-76
2023/01/05 12:46:56;;;;;;;6.45;1.55;;;9.30;99.90;;;;;;5097098;28;20043;-74
2023/01/05 12:49:34;;;;;;;4.82;1.05;;;9.30;99.90;;;;;;5079351;28;20387;-76
2023/01/05 12:52:14;;;;;;;6.63;1.15;;;9.40;99.90;;;;;;5096882;28;20047;-76
2023/01/05 12:54:49;;;;;;;9.98;1.10;;;9.40;99.90;;;;;;5079720;28;20086;-75
2023/01/05 12:57:47;;;;;;;7.10;1.10;;;9.40;99.90;;;;;;5078791;28;20063;-76
2023/01/05 13:00:18;;;;;;;6.18;1.00;;;9.40;99.90;;;;;;5097208;28;20116;-75
2023/01/05 13:02:58;;;;;;;5.97;1.30;;;9.50;99.90;;;;;;5078628;28;20055;-76
2023/01/05 13:05:36;;;;;;;5.40;1.00;;;9.60;99.90;;;;;;5096540;28;20048;-75
2023/01/05 13:08:28;;;;;;;7.75;1.17;;;9.60;99.90;;;;;;5096502;28;20044;-76
2023/01/05 13:10:53;;;;;;;5.55;1.15;;;9.50;99.90;;;;;;5078922;28;20044;-76
2023/01/05 13:13:42;;;;;;;6.70;1.48;;;9.60;99.90;;;;;;5096708;28;20432;-76
2023/01/05 13:16:33;;;;;;;8.77;1.10;;;9.60;99.90;;;;;;5096429;28;20087;-76
2023/01/05 13:19:20;;;;;;;6.28;0.90;;;9.60;99.90;;;;;;5078535;28;20094;-76
2023/01/05 13:21:47;;;;;;;9.15;1.38;;;9.60;99.90;;;;;;5096904;28;20091;-75
2023/01/05 13:24:26;;;;;;;6.43;0.90;;;9.70;99.90;;;;;;5078349;28;20105;-77
2023/01/05 13:26:52;;;;;;;7.50;0.80;;;9.60;99.90;;;;;;5096535;28;20044;-77
2023/01/05 13:29:28;;;;;;;6.88;0.90;;;9.60;99.90;;;;;;5095879;28;20044;-76
2023/01/05 13:32:03;;;;;;;5.60;0.80;;;9.60;99.90;;;;;;5096338;28;20489;-76
2023/01/05 13:34:39;;;;;;;5.82;0.80;;;9.60;99.90;;;;;;5061484;28;20048;-76
2023/01/05 13:37:14;;;;;;;6.68;1.20;;;9.60;99.90;;;;;;5095797;28;20513;-77
2023/01/05 13:40:02;;;;;;;5.47;1.23;;;9.60;99.90;;;;;;5095800;28;20051;-75
2023/01/05 13:43:04;;;;;;;7.97;1.02;;;9.60;99.90;;;;;;5096157;28;20101;-76
2023/01/05 13:46:01;;;;;;;5.38;1.15;;;9.50;99.90;;;;;;5095784;28;20096;-76